createdAt,value
2019-04-22T00:01:28.930Z,12.86
2019-04-22T00:04:00.656Z,12.94
2019-04-22T00:06:48.396Z,13.30
2019-04-22T00:09:15.956Z,13.04
2019-04-22T00:11:35.441Z,13.15
2019-04-22T00:14:00.769Z,12.82
2019-04-22T00:16:43.248Z,12.72
2019-04-22T00:19:11.365Z,12.56
2019-04-22T00:21:25.791Z,12.59
2019-04-22T00:23:54.754Z,12.52
2019-04-22T00:28:49.707Z,12.44
2019-04-22T00:31:19.212Z,12.21
2019-04-22T00:33:43.792Z,11.74
2019-04-22T00:36:11.298Z,11.33
2019-04-22T00:38:38.321Z,11.22
2019-04-22T00:41:05.766Z,11.17
2019-04-22T00:43:32.993Z,11.14
2019-04-22T00:45:56.242Z,11.32
2019-04-22T00:48:29.097Z,11.85
2019-04-22T00:51:04.260Z,12.17
2019-04-22T00:53:25.314Z,12.42
2019-04-22T00:56:00.581Z,12.36
2019-04-22T00:58:29.398Z,12.52
2019-04-22T01:00:54.246Z,12.49
2019-04-22T01:03:19.649Z,12.41
2019-04-22T01:05:46.588Z,12.38
2019-04-22T01:08:15.235Z,12.22
2019-04-22T01:10:40.313Z,12.04
2019-04-22T01:13:04.758Z,11.49
2019-04-22T01:15:34.421Z,11.20
2019-04-22T01:17:57.904Z,10.94
2019-04-22T01:20:45.792Z,10.85
2019-04-22T01:22:52.816Z,10.69
2019-04-22T01:25:15.955Z,10.72
2019-04-22T01:27:41.822Z,10.71
2019-04-22T01:30:00.860Z,10.56
2019-04-22T01:32:22.877Z,10.40
2019-04-22T01:34:57.989Z,10.62
2019-04-22T01:37:29.087Z,10.64
2019-04-22T01:40:04.763Z,10.63
2019-04-22T01:42:24.486Z,10.76
2019-04-22T01:44:51.005Z,10.72
2019-04-22T01:47:29.894Z,10.83
2019-04-22T01:49:46.215Z,10.79
2019-04-22T01:52:15.787Z,10.91
2019-04-22T01:54:48.085Z,10.93
2019-04-22T01:57:03.607Z,10.99
2019-04-22T01:59:27.185Z,10.81
2019-04-22T02:02:07.041Z,10.62
2019-04-22T02:04:44.622Z,10.60
2019-04-22T02:07:00.147Z,10.34
2019-04-22T02:11:57.189Z,10.69
2019-04-22T02:14:20.367Z,10.64
2019-04-22T02:16:41.611Z,10.52
2019-04-22T02:19:11.624Z,10.44
2019-04-22T02:21:35.774Z,10.37
2019-04-22T02:24:02.645Z,10.07
2019-04-22T02:28:56.473Z,9.67
2019-04-22T02:34:09.352Z,10.04
2019-04-22T02:36:30.392Z,9.97
2019-04-22T02:41:23.047Z,10.13
2019-04-22T02:43:52.804Z,10.33
2019-04-22T02:46:23.333Z,10.38
2019-04-22T02:54:12.193Z,10.57
2019-04-22T02:56:12.186Z,10.48
2019-04-22T02:58:37.329Z,10.64
2019-04-22T03:00:58.894Z,10.67
2019-04-22T03:08:15.123Z,10.17
2019-04-22T03:10:47.406Z,10.04
2019-04-22T03:13:16.109Z,9.84
2019-04-22T03:15:29.983Z,9.89
2019-04-22T03:18:01.238Z,10.29
2019-04-22T03:20:45.992Z,10.40
2019-04-22T03:23:00.288Z,10.33
2019-04-22T03:27:40.217Z,10.43
2019-04-22T03:37:45.624Z,10.48
2019-04-22T03:40:02.487Z,10.48
2019-04-22T03:42:21.593Z,10.53
2019-04-22T03:45:01.259Z,10.57
2019-04-22T03:49:56.029Z,10.75
2019-04-22T03:54:47.698Z,10.80
2019-04-22T03:59:47.716Z,10.96
2019-04-22T04:09:24.273Z,10.04
2019-04-22T04:14:22.925Z,10.15
2019-04-22T04:16:49.901Z,10.14
2019-04-22T04:24:19.774Z,9.95
2019-04-22T04:29:02.412Z,9.87
2019-04-22T04:33:46.716Z,10.09
2019-04-22T04:46:06.917Z,10.16
2019-04-22T04:48:34.835Z,10.16
2019-04-22T04:51:11.896Z,10.24
2019-04-22T04:53:23.201Z,10.39
2019-04-22T04:55:49.131Z,10.45
2019-04-22T04:58:25.047Z,10.53
2019-04-22T05:03:16.688Z,10.70
2019-04-22T05:05:31.438Z,10.64
2019-04-22T05:10:44.858Z,10.86
2019-04-22T05:12:56.812Z,11.05
2019-04-22T05:17:55.075Z,11.33
2019-04-22T05:20:24.247Z,11.34
2019-04-22T05:22:39.669Z,11.42
2019-04-22T05:27:36.418Z,11.64
2019-04-22T05:30:23.742Z,11.70
2019-04-22T05:32:28.753Z,11.73
2019-04-22T05:35:10.263Z,11.82
2019-04-22T05:37:25.691Z,11.86
2019-04-22T05:39:44.871Z,12.02
2019-04-22T05:42:12.662Z,12.08
2019-04-22T05:44:44.078Z,12.24
2019-04-22T05:47:01.041Z,12.40
2019-04-22T05:49:28.883Z,12.47
2019-04-22T05:51:54.592Z,12.60
2019-04-22T05:54:31.281Z,12.68
2019-04-22T05:56:47.716Z,12.82
2019-04-22T05:59:22.809Z,12.82
2019-04-22T06:01:53.248Z,12.91
2019-04-22T06:04:09.879Z,13.02
2019-04-22T06:06:35.308Z,13.07
2019-04-22T06:09:05.156Z,13.11
2019-04-22T06:11:29.526Z,13.14
2019-04-22T06:13:59.317Z,13.17
2019-04-22T06:16:26.518Z,13.35
2019-04-22T06:18:56.830Z,13.38
2019-04-22T06:21:22.380Z,13.41
2019-04-22T06:23:46.864Z,13.37
2019-04-22T06:28:40.645Z,13.62
2019-04-22T06:31:12.500Z,13.61
2019-04-22T06:33:36.032Z,13.76
2019-04-22T06:36:03.717Z,13.92
2019-04-22T06:38:39.200Z,14.12
2019-04-22T06:40:55.406Z,14.32
2019-04-22T06:43:23.638Z,14.38
2019-04-22T06:45:44.856Z,14.49
2019-04-22T06:48:19.553Z,14.61
2019-04-22T06:50:56.802Z,14.69
2019-04-22T06:53:26.637Z,14.93
2019-04-22T06:55:38.925Z,15.02
2019-04-22T06:58:01.533Z,14.98
2019-04-22T07:00:43.080Z,15.00
2019-04-22T07:05:23.611Z,15.06
2019-04-22T07:07:45.355Z,15.17
2019-04-22T07:10:26.779Z,15.23
2019-04-22T07:12:41.799Z,15.63
2019-04-22T07:15:16.216Z,15.71
2019-04-22T07:17:39.331Z,15.58
2019-04-22T07:19:58.494Z,15.61
2019-04-22T07:22:31.172Z,15.63
2019-04-22T07:27:22.233Z,16.02
2019-04-22T07:29:57.741Z,16.03
2019-04-22T07:32:15.519Z,16.16
2019-04-22T07:37:23.088Z,16.36
2019-04-22T07:39:35.608Z,16.45
2019-04-22T07:41:58.617Z,16.71
2019-04-22T07:44:30.925Z,16.80
2019-04-22T07:49:26.746Z,17.18
2019-04-22T07:52:04.796Z,17.23
2019-04-22T07:54:16.275Z,17.07
2019-04-22T07:56:44.003Z,17.04
2019-04-22T07:59:09.258Z,17.04
2019-04-22T08:04:13.129Z,16.98
2019-04-22T08:06:30.962Z,17.40
2019-04-22T08:09:03.244Z,17.63
2019-04-22T08:11:37.419Z,17.63
2019-04-22T08:13:48.501Z,17.68
2019-04-22T08:16:16.394Z,17.64
2019-04-22T08:18:40.576Z,17.72
2019-04-22T08:21:12.317Z,17.70
2019-04-22T08:23:38.903Z,17.68
2019-04-22T08:26:01.739Z,17.94
2019-04-22T08:28:31.714Z,18.06
2019-04-22T08:30:59.700Z,18.37
2019-04-22T08:33:29.490Z,18.36
2019-04-22T08:36:12.012Z,18.63
2019-04-22T08:38:14.915Z,18.54
2019-04-22T08:40:50.159Z,18.60
2019-04-22T08:43:20.956Z,18.79
2019-04-22T08:45:48.098Z,19.04
2019-04-22T08:48:07.629Z,19.21
2019-04-22T08:50:33.504Z,19.31
2019-04-22T08:53:06.168Z,19.42
2019-04-22T08:55:32.929Z,19.49
2019-04-22T09:00:19.985Z,19.85
2019-04-22T09:02:53.958Z,20.13
2019-04-22T09:05:22.806Z,20.18
2019-04-22T09:07:47.005Z,20.13
2019-04-22T09:10:10.376Z,20.30
2019-04-22T09:15:01.086Z,20.57
2019-04-22T09:17:33.069Z,20.90
2019-04-22T09:20:04.680Z,21.23
2019-04-22T09:22:26.378Z,21.46
2019-04-22T09:25:03.129Z,21.62
2019-04-22T09:27:32.053Z,21.91
2019-04-22T09:29:42.977Z,21.88
2019-04-22T09:32:11.813Z,21.83
2019-04-22T09:34:39.934Z,22.03
2019-04-22T09:37:11.729Z,21.97
2019-04-22T09:39:37.521Z,22.20
2019-04-22T09:41:58.722Z,22.30
2019-04-22T09:44:34.594Z,22.41
2019-04-22T09:46:52.279Z,22.79
2019-04-22T09:49:26.666Z,22.86
2019-04-22T09:51:48.500Z,22.57
2019-04-22T09:54:22.006Z,22.78
2019-04-22T09:59:05.500Z,22.69
2019-04-22T10:02:01.212Z,22.83
2019-04-22T10:04:00.857Z,23.20
2019-04-22T10:06:36.639Z,22.93
2019-04-22T10:11:26.798Z,23.37
2019-04-22T10:16:17.575Z,23.19
2019-04-22T10:18:46.406Z,23.39
2019-04-22T10:21:08.682Z,23.36
2019-04-22T10:23:31.616Z,23.47
2019-04-22T10:26:04.840Z,23.75
2019-04-22T10:28:35.582Z,23.97
2019-04-22T10:30:53.458Z,23.28
2019-04-22T10:33:16.235Z,23.58
2019-04-22T10:35:26.744Z,23.26
2019-04-22T10:37:50.487Z,22.95
2019-04-22T10:40:25.732Z,23.13
2019-04-22T10:42:51.665Z,23.45
2019-04-22T10:45:18.549Z,23.49
2019-04-22T10:47:45.836Z,23.84
2019-04-22T10:50:12.276Z,23.98
2019-04-22T10:52:39.373Z,23.84
2019-04-22T10:55:05.541Z,24.05
2019-04-22T10:57:32.290Z,24.12
2019-04-22T10:59:59.019Z,23.72
2019-04-22T11:02:25.758Z,23.53
2019-04-22T11:04:52.492Z,23.32
2019-04-22T11:07:24.631Z,23.12
2019-04-22T11:09:54.862Z,22.92
2019-04-22T11:12:17.663Z,22.92
2019-04-22T11:14:42.760Z,22.80
2019-04-22T11:17:07.435Z,22.99
2019-04-22T11:19:33.068Z,22.88
2019-04-22T11:22:07.644Z,22.87
2019-04-22T11:24:26.804Z,22.77
2019-04-22T11:26:54.801Z,22.91
2019-04-22T11:29:21.398Z,22.93
2019-04-22T11:31:48.276Z,22.89
2019-04-22T11:34:15.355Z,22.80
2019-04-22T11:36:40.919Z,23.06
2019-04-22T11:39:10.778Z,23.15
2019-04-22T11:41:35.991Z,23.33
2019-04-22T11:44:01.352Z,23.48
2019-04-22T11:46:29.359Z,23.76
2019-04-22T11:48:55.918Z,24.25
2019-04-22T11:51:22.115Z,24.46
2019-04-22T11:53:49.125Z,24.76
2019-04-22T11:56:14.885Z,24.74
2019-04-22T11:58:42.570Z,24.65
2019-04-22T12:01:08.675Z,24.26
2019-04-22T12:03:35.766Z,24.15
2019-04-22T12:06:02.188Z,24.04
2019-04-22T12:08:29.100Z,23.96
2019-04-22T12:11:00.088Z,24.04
2019-04-22T12:13:22.390Z,23.98
2019-04-22T12:15:49.183Z,23.79
2019-04-22T12:18:17.211Z,23.73
2019-04-22T12:20:43.378Z,23.70
2019-04-22T12:23:09.537Z,23.85
2019-04-22T12:25:47.631Z,23.78
2019-04-22T12:28:03.301Z,23.72
2019-04-22T12:30:29.858Z,23.84
2019-04-22T12:32:56.326Z,23.73
2019-04-22T12:35:24.280Z,23.84
2019-04-22T12:37:55.624Z,23.91
2019-04-22T12:40:29.433Z,23.92
2019-04-22T12:42:43.286Z,24.23
2019-04-22T12:45:10.051Z,24.16
2019-04-22T12:47:38.088Z,24.21
2019-04-22T12:50:12.359Z,24.33
2019-04-22T12:52:37.382Z,24.16
2019-04-22T12:54:57.370Z,24.35
2019-04-22T12:57:24.906Z,24.54
2019-04-22T12:59:50.654Z,24.47
2019-04-22T13:02:18.696Z,24.71
2019-04-22T13:04:44.134Z,25.01
2019-04-22T13:07:11.558Z,25.30
2019-04-22T13:09:38.957Z,25.79
2019-04-22T13:12:04.354Z,25.84
2019-04-22T13:14:31.110Z,25.97
2019-04-22T13:16:59.782Z,25.93
2019-04-22T13:19:28.020Z,26.17
2019-04-22T13:21:52.335Z,26.47
2019-04-22T13:24:20.101Z,26.29
2019-04-22T13:26:45.836Z,26.14
2019-04-22T13:29:12.892Z,26.10
2019-04-22T13:31:40.444Z,26.01
2019-04-22T13:34:13.289Z,26.02
2019-04-22T13:36:32.818Z,25.66
2019-04-22T13:39:00.749Z,25.52
2019-04-22T13:41:35.674Z,25.26
2019-04-22T13:43:53.857Z,25.21
2019-04-22T13:46:20.082Z,25.12
2019-04-22T13:49:14.679Z,25.25
2019-04-22T13:51:46.179Z,25.21
2019-04-22T13:54:37.214Z,25.35
2019-04-22T13:56:23.824Z,25.51
2019-04-22T13:58:48.555Z,25.64
2019-04-22T14:01:04.862Z,25.89
2019-04-22T14:03:50.084Z,25.97
2019-04-22T14:06:16.821Z,26.14
2019-04-22T14:08:45.086Z,26.41
2019-04-22T14:11:25.310Z,26.47
2019-04-22T14:13:37.758Z,26.60
2019-04-22T14:16:04.784Z,26.48
2019-04-22T14:18:30.834Z,26.54
2019-04-22T14:20:58.716Z,26.29
2019-04-22T14:23:24.675Z,26.37
2019-04-22T14:25:50.926Z,26.43
2019-04-22T14:28:19.385Z,26.40
2019-04-22T14:30:44.429Z,26.35
2019-04-22T14:33:12.109Z,26.02
2019-04-22T14:35:38.460Z,25.83
2019-04-22T14:38:06.312Z,25.85
2019-04-22T14:40:32.943Z,26.18
2019-04-22T14:44:43.033Z,26.14
2019-04-22T14:46:01.681Z,26.12
2019-04-22T14:48:19.924Z,26.11
2019-04-22T14:50:41.915Z,25.96
2019-04-22T14:53:04.102Z,25.82
2019-04-22T14:55:17.461Z,25.63
2019-04-22T14:57:40.399Z,25.74
2019-04-22T15:00:06.141Z,25.78
2019-04-22T15:02:33.873Z,25.89
2019-04-22T15:05:00.547Z,26.10
2019-04-22T15:07:26.062Z,26.24
2019-04-22T15:09:52.783Z,26.17
2019-04-22T15:12:30.112Z,26.09
2019-04-22T15:14:47.827Z,25.90
2019-04-22T15:17:24.948Z,25.78
2019-04-22T15:19:58.065Z,25.69
2019-04-22T15:22:24.046Z,25.70
2019-04-22T15:24:52.313Z,25.46
2019-04-22T15:27:18.461Z,25.36
2019-04-22T15:29:45.141Z,25.44
2019-04-22T15:32:11.720Z,25.48
2019-04-22T15:34:39.401Z,25.60
2019-04-22T15:37:06.088Z,25.37
2019-04-22T15:39:31.641Z,25.40
2019-04-22T15:42:09.755Z,25.61
2019-04-22T15:44:26.067Z,25.52
2019-04-22T15:46:53.064Z,25.29
2019-04-22T15:49:20.022Z,25.22
2019-04-22T15:51:46.749Z,25.14
2019-04-22T15:54:12.167Z,25.13
2019-04-22T15:56:39.118Z,25.15
2019-04-22T15:59:17.234Z,25.22
2019-04-22T16:01:36.997Z,25.24
2019-04-22T16:04:00.391Z,25.08
2019-04-22T16:06:26.342Z,25.02
2019-04-22T16:08:54.043Z,24.77
2019-04-22T16:11:20.005Z,24.68
2019-04-22T16:13:46.618Z,24.71
2019-04-22T16:16:14.435Z,24.66
2019-04-22T16:18:40.329Z,24.57
2019-04-22T16:21:07.151Z,24.47
2019-04-22T16:23:38.649Z,24.43
2019-04-22T16:26:13.564Z,24.43
2019-04-22T16:28:39.789Z,24.39
2019-04-22T16:31:07.197Z,24.20
2019-04-22T16:33:36.458Z,24.30
2019-04-22T16:36:00.581Z,24.15
2019-04-22T16:38:26.961Z,24.10
2019-04-22T16:40:54.723Z,23.92
2019-04-22T16:43:20.417Z,23.87
2019-04-22T16:45:49.533Z,23.81
2019-04-22T16:48:15.774Z,23.79
2019-04-22T16:50:43.655Z,23.73
2019-04-22T16:53:08.481Z,23.64
2019-04-22T16:55:35.170Z,23.60
2019-04-22T16:58:03.182Z,23.55
2019-04-22T17:00:28.881Z,23.52
2019-04-22T17:03:08.876Z,23.56
2019-04-22T17:05:41.396Z,23.40
2019-04-22T17:08:08.190Z,23.36
2019-04-22T17:10:34.006Z,23.51
2019-04-22T17:13:07.241Z,23.48
2019-04-22T17:15:29.115Z,23.27
2019-04-22T17:17:54.944Z,23.22
2019-04-22T17:20:27.180Z,23.02
2019-04-22T17:22:53.759Z,22.99
2019-04-22T17:25:20.597Z,22.86
2019-04-22T17:27:47.506Z,22.77
2019-04-22T17:30:14.702Z,22.57
2019-04-22T17:32:43.266Z,22.58
2019-04-22T17:35:08.342Z,22.57
2019-04-22T17:37:37.119Z,22.42
2019-04-22T17:40:15.853Z,22.28
2019-04-22T17:42:46.189Z,22.17
2019-04-22T17:45:28.447Z,22.11
2019-04-22T17:47:49.341Z,21.97
2019-04-22T17:50:27.524Z,21.68
2019-04-22T17:52:54.860Z,21.83
2019-04-22T17:55:11.433Z,21.62
2019-04-22T17:57:38.085Z,21.54
2019-04-22T18:00:07.047Z,21.46
2019-04-22T18:02:32.354Z,21.39
2019-04-22T18:04:49.619Z,21.31
2019-04-22T18:07:45.282Z,21.18
2019-04-22T18:12:35.772Z,21.02
2019-04-22T18:14:56.803Z,20.98
2019-04-22T18:17:19.453Z,20.94
2019-04-22T18:19:40.212Z,21.04
2019-04-22T18:22:03.674Z,20.77
2019-04-22T18:24:26.553Z,20.64
2019-04-22T18:27:17.053Z,20.52
2019-04-22T18:29:31.054Z,20.34
2019-04-22T18:31:47.858Z,20.47
2019-04-22T18:34:15.838Z,20.42
2019-04-22T18:36:45.732Z,20.23
2019-04-22T18:39:25.290Z,20.06
2019-04-22T18:41:47.217Z,19.84
2019-04-22T18:44:11.484Z,19.93
2019-04-22T18:46:36.579Z,19.93
2019-04-22T18:49:03.392Z,19.83
2019-04-22T18:51:40.271Z,19.76
2019-04-22T18:54:13.434Z,19.73
2019-04-22T18:56:37.358Z,19.88
2019-04-22T18:58:55.856Z,19.86
2019-04-22T19:01:12.465Z,19.76
2019-04-22T19:03:51.754Z,19.74
2019-04-22T19:06:34.160Z,19.73
2019-04-22T19:09:01.760Z,19.67
2019-04-22T19:11:16.720Z,19.51
2019-04-22T19:16:25.581Z,19.69
2019-04-22T19:19:09.988Z,19.58
2019-04-22T19:21:16.026Z,19.48
2019-04-22T19:23:31.899Z,19.44
2019-04-22T19:26:01.754Z,19.38
2019-04-22T19:30:57.802Z,19.27
2019-04-22T19:33:23.638Z,19.18
2019-04-22T19:35:44.238Z,19.30
2019-04-22T19:38:05.315Z,19.23
2019-04-22T19:40:47.914Z,19.12
2019-04-22T19:43:09.020Z,19.14
2019-04-22T19:45:32.770Z,19.09
2019-04-22T19:48:03.658Z,19.08
2019-04-22T19:50:27.435Z,19.08
2019-04-22T19:53:01.685Z,19.14
2019-04-22T19:55:23.819Z,18.99
2019-04-22T19:57:52.575Z,18.72
2019-04-22T20:00:14.460Z,18.57
2019-04-22T20:03:05.375Z,18.31
2019-04-22T20:05:41.527Z,18.31
2019-04-22T20:07:51.286Z,18.32
2019-04-22T20:10:26.463Z,18.32
2019-04-22T20:12:50.047Z,18.47
2019-04-22T20:15:15.611Z,18.54
2019-04-22T20:18:00.563Z,18.51
2019-04-22T20:20:19.080Z,18.44
2019-04-22T20:22:37.436Z,18.36
2019-04-22T20:24:53.797Z,18.41
2019-04-22T20:27:36.516Z,18.32
2019-04-22T20:30:02.404Z,18.25
2019-04-22T20:32:29.248Z,18.16
2019-04-22T20:34:59.554Z,18.13
2019-04-22T20:37:39.939Z,18.32
2019-04-22T20:39:48.782Z,18.45
2019-04-22T20:44:47.333Z,18.43
2019-04-22T20:47:04.431Z,18.34
2019-04-22T20:49:38.372Z,18.34
2019-04-22T20:52:14.128Z,18.35
2019-04-22T20:54:28.412Z,18.35
2019-04-22T20:56:49.234Z,18.36
2019-04-22T20:59:19.051Z,18.34
2019-04-22T21:01:43.273Z,18.26
2019-04-22T21:04:00.888Z,18.17
2019-04-22T21:06:38.409Z,18.25
2019-04-22T21:09:12.033Z,18.23
2019-04-22T21:11:34.625Z,18.21
2019-04-22T21:14:04.422Z,18.37
2019-04-22T21:16:34.752Z,18.17
2019-04-22T21:18:47.376Z,18.19
2019-04-22T21:21:29.652Z,18.09
2019-04-22T21:23:44.955Z,18.03
2019-04-22T21:26:13.988Z,18.09
2019-04-22T21:28:43.757Z,18.07
2019-04-22T21:31:14.472Z,18.10
2019-04-22T21:33:36.411Z,18.00
2019-04-22T21:38:33.167Z,17.96
2019-04-22T21:40:56.681Z,17.90
2019-04-22T21:43:25.576Z,17.98
2019-04-22T21:45:53.119Z,17.99
2019-04-22T21:48:27.942Z,18.04
2019-04-22T21:53:14.499Z,17.81
2019-04-22T21:55:43.779Z,17.77
2019-04-22T21:58:13.076Z,17.84
2019-04-22T22:00:53.485Z,17.71
2019-04-22T22:03:11.680Z,17.65
2019-04-22T22:05:28.756Z,17.91
2019-04-22T22:07:48.108Z,17.72
2019-04-22T22:10:29.490Z,17.63
2019-04-22T22:12:54.955Z,17.56
2019-04-22T22:15:22.496Z,17.57
2019-04-22T22:17:42.964Z,17.63
2019-04-22T22:20:10.598Z,17.60
2019-04-22T22:23:00.553Z,17.52
2019-04-22T22:25:10.577Z,17.62
2019-04-22T22:27:37.503Z,17.55
2019-04-22T22:32:32.048Z,17.41
2019-04-22T22:35:00.390Z,17.35
2019-04-22T22:37:12.137Z,17.27
2019-04-22T22:39:39.235Z,17.41
2019-04-22T22:41:54.230Z,17.34
2019-04-22T22:44:29.488Z,17.43
2019-04-22T22:47:03.522Z,17.42
2019-04-22T22:49:33.400Z,17.51
2019-04-22T22:52:26.166Z,17.32
2019-04-22T22:54:33.067Z,17.20
2019-04-22T22:57:16.844Z,17.24
2019-04-22T22:59:23.680Z,17.33
2019-04-22T23:02:04.375Z,17.10
2019-04-22T23:04:16.210Z,17.13
2019-04-22T23:06:44.389Z,16.96
2019-04-22T23:09:10.096Z,17.05
2019-04-22T23:11:52.057Z,16.95
2019-04-22T23:14:02.409Z,16.79
2019-04-22T23:16:20.210Z,16.79
2019-04-22T23:18:55.394Z,16.94
2019-04-22T23:21:29.103Z,16.90
2019-04-22T23:24:05.751Z,16.82
2019-04-22T23:26:40.394Z,16.93
2019-04-22T23:29:06.186Z,16.68
2019-04-22T23:31:35.517Z,16.59
2019-04-22T23:34:09.235Z,16.57
2019-04-22T23:36:42.431Z,16.71
2019-04-22T23:39:20.287Z,16.59
2019-04-22T23:41:47.642Z,16.49
2019-04-22T23:46:37.921Z,16.36
2019-04-22T23:49:04.561Z,16.38
2019-04-22T23:51:39.626Z,16.33
2019-04-22T23:54:07.052Z,16.31
2019-04-22T23:56:28.183Z,16.22
2019-04-22T23:59:05.111Z,16.21
